sensor_id;sensor_type;location;lat;lon;timestamp;temperature;humidity
11894;DHT22;6006;49.696;8.662;2023-07-09T00:00:37;18.80;99.90
11894;DHT22;6006;49.696;8.662;2023-07-09T00:03:05;18.80;1.00
11894;DHT22;6006;49.696;8.662;2023-07-09T00:05:32;18.80;1.00
11894;DHT22;6006;49.696;8.662;2023-07-09T00:07:59;18.70;13.50
11894;DHT22;6006;49.696;8.662;2023-07-09T00:10:27;18.60;99.90
11894;DHT22;6006;49.696;8.662;2023-07-09T00:12:53;18.60;99.90
11894;DHT22;6006;49.696;8.662;2023-07-09T00:15:22;18.60;1.00
11894;DHT22;6006;49.696;8.662;2023-07-09T00:17:50;18.50;1.00
11894;DHT22;6006;49.696;8.662;2023-07-09T00:20:18;18.50;1.00
11894;DHT22;6006;49.696;8.662;2023-07-09T00:22:45;18.50;1.00
11894;DHT22;6006;49.696;8.662;2023-07-09T00:25:13;18.40;1.00
11894;DHT22;6006;49.696;8.662;2023-07-09T00:27:42;18.40;99.90
11894;DHT22;6006;49.696;8.662;2023-07-09T00:30:15;18.30;1.00
11894;DHT22;6006;49.696;8.662;2023-07-09T00:32:44;18.20;1.00
11894;DHT22;6006;49.696;8.662;2023-07-09T00:35:12;18.20;19.30
11894;DHT22;6006;49.696;8.662;2023-07-09T00:37:41;18.20;1.00
11894;DHT22;6006;49.696;8.662;2023-07-09T00:40:14;18.20;1.00
11894;DHT22;6006;49.696;8.662;2023-07-09T00:42:44;18.10;1.00
11894;DHT22;6006;49.696;8.662;2023-07-09T00:45:18;18.10;98.90
11894;DHT22;6006;49.696;8.662;2023-07-09T00:47:53;18.00;1.00
11894;DHT22;6006;49.696;8.662;2023-07-09T00:50:27;17.90;21.70
11894;DHT22;6006;49.696;8.662;2023-07-09T00:52:59;17.80;99.90
11894;DHT22;6006;49.696;8.662;2023-07-09T00:55:34;17.80;99.90
11894;DHT22;6006;49.696;8.662;2023-07-09T00:58:05;17.70;99.90
11894;DHT22;6006;49.696;8.662;2023-07-09T01:00:34;17.70;99.90
11894;DHT22;6006;49.696;8.662;2023-07-09T01:03:18;17.70;99.90
11894;DHT22;6006;49.696;8.662;2023-07-09T01:05:47;17.70;99.90
11894;DHT22;6006;49.696;8.662;2023-07-09T01:08:18;17.60;99.90
11894;DHT22;6006;49.696;8.662;2023-07-09T01:10:46;17.60;99.90
11894;DHT22;6006;49.696;8.662;2023-07-09T01:13:13;17.50;1.00
11894;DHT22;6006;49.696;8.662;2023-07-09T01:15:40;17.50;1.00
11894;DHT22;6006;49.696;8.662;2023-07-09T01:18:08;17.40;1.00
11894;DHT22;6006;49.696;8.662;2023-07-09T01:20:38;17.40;1.00
11894;DHT22;6006;49.696;8.662;2023-07-09T01:23:07;17.40;1.00
11894;DHT22;6006;49.696;8.662;2023-07-09T01:25:36;17.40;1.00
11894;DHT22;6006;49.696;8.662;2023-07-09T01:28:04;17.40;1.00
11894;DHT22;6006;49.696;8.662;2023-07-09T01:30:35;17.40;1.00
11894;DHT22;6006;49.696;8.662;2023-07-09T01:33:03;17.30;1.00
11894;DHT22;6006;49.696;8.662;2023-07-09T01:35:33;17.30;1.00
11894;DHT22;6006;49.696;8.662;2023-07-09T01:38:01;17.30;1.00
11894;DHT22;6006;49.696;8.662;2023-07-09T01:40:29;17.30;1.00
11894;DHT22;6006;49.696;8.662;2023-07-09T01:42:57;17.30;1.00
11894;DHT22;6006;49.696;8.662;2023-07-09T01:45:25;17.30;1.00
11894;DHT22;6006;49.696;8.662;2023-07-09T01:47:52;17.30;1.00
11894;DHT22;6006;49.696;8.662;2023-07-09T01:50:20;17.20;1.00
11894;DHT22;6006;49.696;8.662;2023-07-09T01:52:49;17.20;1.00
11894;DHT22;6006;49.696;8.662;2023-07-09T01:55:17;17.20;1.00
11894;DHT22;6006;49.696;8.662;2023-07-09T01:57:46;17.10;1.00
11894;DHT22;6006;49.696;8.662;2023-07-09T02:00:16;17.10;1.00
11894;DHT22;6006;49.696;8.662;2023-07-09T02:02:45;17.10;1.00
11894;DHT22;6006;49.696;8.662;2023-07-09T02:05:14;17.00;1.00
11894;DHT22;6006;49.696;8.662;2023-07-09T02:07:41;17.00;1.00
11894;DHT22;6006;49.696;8.662;2023-07-09T02:10:09;17.00;1.00
11894;DHT22;6006;49.696;8.662;2023-07-09T02:12:36;17.00;1.00
11894;DHT22;6006;49.696;8.662;2023-07-09T02:15:06;17.00;1.00
11894;DHT22;6006;49.696;8.662;2023-07-09T02:17:33;17.00;1.00
11894;DHT22;6006;49.696;8.662;2023-07-09T02:20:00;17.00;1.00
11894;DHT22;6006;49.696;8.662;2023-07-09T02:22:27;17.00;1.00
11894;DHT22;6006;49.696;8.662;2023-07-09T02:24:53;17.00;1.00
11894;DHT22;6006;49.696;8.662;2023-07-09T02:27:20;17.00;1.00
11894;DHT22;6006;49.696;8.662;2023-07-09T02:29:48;17.00;1.00
11894;DHT22;6006;49.696;8.662;2023-07-09T02:32:20;17.00;1.00
11894;DHT22;6006;49.696;8.662;2023-07-09T02:34:48;16.90;1.00
11894;DHT22;6006;49.696;8.662;2023-07-09T02:37:19;16.90;1.00
11894;DHT22;6006;49.696;8.662;2023-07-09T02:39:46;16.90;1.00
11894;DHT22;6006;49.696;8.662;2023-07-09T02:42:15;16.90;1.00
11894;DHT22;6006;49.696;8.662;2023-07-09T02:44:43;16.90;1.00
11894;DHT22;6006;49.696;8.662;2023-07-09T02:47:10;16.90;1.00
11894;DHT22;6006;49.696;8.662;2023-07-09T02:49:39;16.90;1.00
11894;DHT22;6006;49.696;8.662;2023-07-09T02:52:07;17.00;1.00
11894;DHT22;6006;49.696;8.662;2023-07-09T02:54:34;16.90;1.00
11894;DHT22;6006;49.696;8.662;2023-07-09T02:57:01;16.90;1.00
11894;DHT22;6006;49.696;8.662;2023-07-09T02:59:28;16.90;1.00
11894;DHT22;6006;49.696;8.662;2023-07-09T03:01:55;16.90;1.00
11894;DHT22;6006;49.696;8.662;2023-07-09T03:04:22;16.90;1.00
11894;DHT22;6006;49.696;8.662;2023-07-09T03:06:50;16.90;1.00
11894;DHT22;6006;49.696;8.662;2023-07-09T03:09:18;16.90;1.00
11894;DHT22;6006;49.696;8.662;2023-07-09T03:11:44;16.90;1.00
11894;DHT22;6006;49.696;8.662;2023-07-09T03:14:13;16.90;1.00
11894;DHT22;6006;49.696;8.662;2023-07-09T03:16:40;16.90;1.00
11894;DHT22;6006;49.696;8.662;2023-07-09T03:19:07;16.80;1.00
11894;DHT22;6006;49.696;8.662;2023-07-09T03:21:34;16.80;1.00
11894;DHT22;6006;49.696;8.662;2023-07-09T03:24:03;16.80;1.00
11894;DHT22;6006;49.696;8.662;2023-07-09T03:26:30;16.80;1.00
11894;DHT22;6006;49.696;8.662;2023-07-09T03:28:57;16.80;1.00
11894;DHT22;6006;49.696;8.662;2023-07-09T03:31:24;16.80;1.00
11894;DHT22;6006;49.696;8.662;2023-07-09T03:33:51;16.70;1.00
11894;DHT22;6006;49.696;8.662;2023-07-09T03:36:19;16.70;1.00
11894;DHT22;6006;49.696;8.662;2023-07-09T03:38:46;16.70;1.00
11894;DHT22;6006;49.696;8.662;2023-07-09T03:41:15;16.70;1.00
11894;DHT22;6006;49.696;8.662;2023-07-09T03:43:42;16.60;1.00
11894;DHT22;6006;49.696;8.662;2023-07-09T03:46:09;16.60;1.00
11894;DHT22;6006;49.696;8.662;2023-07-09T03:48:35;16.60;21.90
11894;DHT22;6006;49.696;8.662;2023-07-09T03:51:02;16.60;32.00
11894;DHT22;6006;49.696;8.662;2023-07-09T03:53:29;16.60;69.80
11894;DHT22;6006;49.696;8.662;2023-07-09T03:55:56;16.60;69.00
11894;DHT22;6006;49.696;8.662;2023-07-09T03:58:26;16.60;90.30
11894;DHT22;6006;49.696;8.662;2023-07-09T04:00:53;16.60;93.40
11894;DHT22;6006;49.696;8.662;2023-07-09T04:03:20;16.60;95.10
11894;DHT22;6006;49.696;8.662;2023-07-09T04:05:47;16.60;99.90
11894;DHT22;6006;49.696;8.662;2023-07-09T04:08:14;16.60;99.90
11894;DHT22;6006;49.696;8.662;2023-07-09T04:10:41;16.60;99.90
11894;DHT22;6006;49.696;8.662;2023-07-09T04:13:08;16.70;99.90
11894;DHT22;6006;49.696;8.662;2023-07-09T04:15:36;16.70;99.90
11894;DHT22;6006;49.696;8.662;2023-07-09T04:18:03;16.80;99.90
11894;DHT22;6006;49.696;8.662;2023-07-09T04:20:30;16.80;99.90
11894;DHT22;6006;49.696;8.662;2023-07-09T04:22:57;16.90;99.90
11894;DHT22;6006;49.696;8.662;2023-07-09T04:25:24;16.90;99.90
11894;DHT22;6006;49.696;8.662;2023-07-09T04:27:51;17.00;99.90
11894;DHT22;6006;49.696;8.662;2023-07-09T04:30:18;17.00;99.90
11894;DHT22;6006;49.696;8.662;2023-07-09T04:32:46;17.10;99.90
11894;DHT22;6006;49.696;8.662;2023-07-09T04:35:14;17.20;88.70
11894;DHT22;6006;49.696;8.662;2023-07-09T04:37:42;17.30;1.00
11894;DHT22;6006;49.696;8.662;2023-07-09T04:40:09;17.40;1.00
11894;DHT22;6006;49.696;8.662;2023-07-09T04:42:37;17.50;1.00
11894;DHT22;6006;49.696;8.662;2023-07-09T04:45:07;17.70;1.00
11894;DHT22;6006;49.696;8.662;2023-07-09T04:47:34;17.80;99.90
11894;DHT22;6006;49.696;8.662;2023-07-09T04:50:03;17.90;99.90
11894;DHT22;6006;49.696;8.662;2023-07-09T04:52:30;18.00;1.00
11894;DHT22;6006;49.696;8.662;2023-07-09T04:54:57;18.20;1.00
11894;DHT22;6006;49.696;8.662;2023-07-09T04:57:26;18.40;1.00
11894;DHT22;6006;49.696;8.662;2023-07-09T04:59:53;18.50;99.90
11894;DHT22;6006;49.696;8.662;2023-07-09T05:02:21;18.70;99.90
11894;DHT22;6006;49.696;8.662;2023-07-09T05:04:47;18.80;1.00
11894;DHT22;6006;49.696;8.662;2023-07-09T05:07:16;19.00;99.90
11894;DHT22;6006;49.696;8.662;2023-07-09T05:09:43;19.20;1.00
11894;DHT22;6006;49.696;8.662;2023-07-09T05:12:10;19.30;1.00
11894;DHT22;6006;49.696;8.662;2023-07-09T05:14:36;19.50;99.90
11894;DHT22;6006;49.696;8.662;2023-07-09T05:17:04;19.60;1.00
11894;DHT22;6006;49.696;8.662;2023-07-09T05:19:31;19.80;99.90
11894;DHT22;6006;49.696;8.662;2023-07-09T05:21:58;20.00;99.90
11894;DHT22;6006;49.696;8.662;2023-07-09T05:24:26;20.10;99.90
11894;DHT22;6006;49.696;8.662;2023-07-09T05:26:54;20.30;1.00
11894;DHT22;6006;49.696;8.662;2023-07-09T05:29:20;20.40;1.00
11894;DHT22;6006;49.696;8.662;2023-07-09T05:31:47;20.50;99.90
11894;DHT22;6006;49.696;8.662;2023-07-09T05:34:14;20.60;99.90
11894;DHT22;6006;49.696;8.662;2023-07-09T05:36:41;20.70;99.90
11894;DHT22;6006;49.696;8.662;2023-07-09T05:39:08;20.70;99.90
11894;DHT22;6006;49.696;8.662;2023-07-09T05:41:36;20.80;99.90
11894;DHT22;6006;49.696;8.662;2023-07-09T05:44:03;21.00;1.00
11894;DHT22;6006;49.696;8.662;2023-07-09T05:46:34;21.20;1.00
11894;DHT22;6006;49.696;8.662;2023-07-09T05:49:02;21.40;1.00
11894;DHT22;6006;49.696;8.662;2023-07-09T05:51:29;21.70;1.00
11894;DHT22;6006;49.696;8.662;2023-07-09T05:53:56;22.10;1.00
11894;DHT22;6006;49.696;8.662;2023-07-09T05:56:23;22.40;99.90
11894;DHT22;6006;49.696;8.662;2023-07-09T05:58:51;22.80;99.90
11894;DHT22;6006;49.696;8.662;2023-07-09T06:01:18;23.10;99.90
11894;DHT22;6006;49.696;8.662;2023-07-09T06:03:46;23.40;48.40
11894;DHT22;6006;49.696;8.662;2023-07-09T06:06:13;23.80;1.00
11894;DHT22;6006;49.696;8.662;2023-07-09T06:08:39;24.10;1.00
11894;DHT22;6006;49.696;8.662;2023-07-09T06:11:06;24.50;1.00
11894;DHT22;6006;49.696;8.662;2023-07-09T06:13:34;24.90;1.00
11894;DHT22;6006;49.696;8.662;2023-07-09T06:16:02;25.30;99.90
11894;DHT22;6006;49.696;8.662;2023-07-09T06:18:30;25.60;99.90
11894;DHT22;6006;49.696;8.662;2023-07-09T06:20:59;25.90;99.90
11894;DHT22;6006;49.696;8.662;2023-07-09T06:23:26;26.30;99.90
11894;DHT22;6006;49.696;8.662;2023-07-09T06:25:53;26.60;99.90
11894;DHT22;6006;49.696;8.662;2023-07-09T06:28:22;27.00;99.90
11894;DHT22;6006;49.696;8.662;2023-07-09T06:30:49;27.20;99.90
11894;DHT22;6006;49.696;8.662;2023-07-09T06:33:19;27.30;99.90
11894;DHT22;6006;49.696;8.662;2023-07-09T06:35:47;27.80;99.90
11894;DHT22;6006;49.696;8.662;2023-07-09T06:38:14;28.00;99.90
11894;DHT22;6006;49.696;8.662;2023-07-09T06:40:41;28.40;99.90
11894;DHT22;6006;49.696;8.662;2023-07-09T06:43:08;28.90;99.90
11894;DHT22;6006;49.696;8.662;2023-07-09T06:45:35;29.10;99.90
11894;DHT22;6006;49.696;8.662;2023-07-09T06:48:02;29.10;99.90
11894;DHT22;6006;49.696;8.662;2023-07-09T06:50:32;29.00;99.90
11894;DHT22;6006;49.696;8.662;2023-07-09T06:52:59;28.60;99.90
11894;DHT22;6006;49.696;8.662;2023-07-09T06:55:26;28.50;99.90
11894;DHT22;6006;49.696;8.662;2023-07-09T06:57:53;28.30;99.90
11894;DHT22;6006;49.696;8.662;2023-07-09T07:00:21;28.10;99.90
11894;DHT22;6006;49.696;8.662;2023-07-09T07:02:48;27.80;99.90
11894;DHT22;6006;49.696;8.662;2023-07-09T07:05:15;27.50;99.90
11894;DHT22;6006;49.696;8.662;2023-07-09T07:07:44;27.70;99.90
11894;DHT22;6006;49.696;8.662;2023-07-09T07:10:11;27.80;99.90
11894;DHT22;6006;49.696;8.662;2023-07-09T07:12:43;28.00;99.90
11894;DHT22;6006;49.696;8.662;2023-07-09T07:15:11;28.30;99.90
11894;DHT22;6006;49.696;8.662;2023-07-09T07:17:38;27.70;99.90
11894;DHT22;6006;49.696;8.662;2023-07-09T07:20:07;27.50;99.90
11894;DHT22;6006;49.696;8.662;2023-07-09T07:22:34;27.40;99.90
11894;DHT22;6006;49.696;8.662;2023-07-09T07:25:03;27.80;99.90
11894;DHT22;6006;49.696;8.662;2023-07-09T07:27:30;27.70;99.90
11894;DHT22;6006;49.696;8.662;2023-07-09T07:29:57;27.50;99.90
11894;DHT22;6006;49.696;8.662;2023-07-09T07:32:24;27.90;99.90
11894;DHT22;6006;49.696;8.662;2023-07-09T07:34:50;28.80;99.90
11894;DHT22;6006;49.696;8.662;2023-07-09T07:37:19;29.20;99.90
11894;DHT22;6006;49.696;8.662;2023-07-09T07:39:46;29.10;99.90
11894;DHT22;6006;49.696;8.662;2023-07-09T07:42:14;29.20;99.90
11894;DHT22;6006;49.696;8.662;2023-07-09T07:44:41;29.10;99.90
11894;DHT22;6006;49.696;8.662;2023-07-09T07:47:08;29.50;99.90
11894;DHT22;6006;49.696;8.662;2023-07-09T07:49:37;29.50;99.90
11894;DHT22;6006;49.696;8.662;2023-07-09T07:52:05;30.00;99.90
11894;DHT22;6006;49.696;8.662;2023-07-09T07:54:32;30.50;99.90
11894;DHT22;6006;49.696;8.662;2023-07-09T07:56:59;31.30;99.90
11894;DHT22;6006;49.696;8.662;2023-07-09T07:59:28;31.00;99.90
11894;DHT22;6006;49.696;8.662;2023-07-09T08:01:55;31.20;99.90
11894;DHT22;6006;49.696;8.662;2023-07-09T08:04:22;32.00;99.90
11894;DHT22;6006;49.696;8.662;2023-07-09T08:06:48;32.20;99.90
11894;DHT22;6006;49.696;8.662;2023-07-09T08:09:15;30.70;99.90
11894;DHT22;6006;49.696;8.662;2023-07-09T08:11:42;30.70;99.90
11894;DHT22;6006;49.696;8.662;2023-07-09T08:14:10;31.20;99.90
11894;DHT22;6006;49.696;8.662;2023-07-09T08:16:38;31.30;99.90
11894;DHT22;6006;49.696;8.662;2023-07-09T08:19:05;31.80;99.90
11894;DHT22;6006;49.696;8.662;2023-07-09T08:21:32;32.30;99.90
11894;DHT22;6006;49.696;8.662;2023-07-09T08:23:59;32.50;99.90
11894;DHT22;6006;49.696;8.662;2023-07-09T08:26:26;32.30;99.90
11894;DHT22;6006;49.696;8.662;2023-07-09T08:28:53;31.60;99.90
11894;DHT22;6006;49.696;8.662;2023-07-09T08:31:20;32.10;99.90
11894;DHT22;6006;49.696;8.662;2023-07-09T08:33:49;32.70;99.90
11894;DHT22;6006;49.696;8.662;2023-07-09T08:36:15;32.60;98.30
11894;DHT22;6006;49.696;8.662;2023-07-09T08:38:42;32.20;99.90
11894;DHT22;6006;49.696;8.662;2023-07-09T08:41:22;32.10;99.90
11894;DHT22;6006;49.696;8.662;2023-07-09T08:44:14;31.90;99.90
11894;DHT22;6006;49.696;8.662;2023-07-09T08:46:56;32.30;99.90
11894;DHT22;6006;49.696;8.662;2023-07-09T08:49:41;32.30;99.90
11894;DHT22;6006;49.696;8.662;2023-07-09T08:52:14;32.00;99.90
11894;DHT22;6006;49.696;8.662;2023-07-09T08:54:42;31.80;99.90
11894;DHT22;6006;49.696;8.662;2023-07-09T08:57:18;32.10;99.90
11894;DHT22;6006;49.696;8.662;2023-07-09T08:59:47;31.80;99.90
11894;DHT22;6006;49.696;8.662;2023-07-09T09:02:27;32.90;99.90
11894;DHT22;6006;49.696;8.662;2023-07-09T09:04:58;33.10;99.80
11894;DHT22;6006;49.696;8.662;2023-07-09T09:07:35;32.50;99.90
11894;DHT22;6006;49.696;8.662;2023-07-09T09:10:05;33.20;97.70
11894;DHT22;6006;49.696;8.662;2023-07-09T09:12:37;33.20;95.70
11894;DHT22;6006;49.696;8.662;2023-07-09T09:15:12;33.70;92.20
11894;DHT22;6006;49.696;8.662;2023-07-09T09:17:40;33.30;95.40
11894;DHT22;6006;49.696;8.662;2023-07-09T09:20:15;33.30;93.30
11894;DHT22;6006;49.696;8.662;2023-07-09T09:22:48;33.20;99.90
11894;DHT22;6006;49.696;8.662;2023-07-09T09:25:23;33.70;92.30
11894;DHT22;6006;49.696;8.662;2023-07-09T09:27:52;33.60;93.60
11894;DHT22;6006;49.696;8.662;2023-07-09T09:30:21;33.70;92.10
11894;DHT22;6006;49.696;8.662;2023-07-09T09:32:52;34.50;91.60
11894;DHT22;6006;49.696;8.662;2023-07-09T09:35:27;34.40;94.90
11894;DHT22;6006;49.696;8.662;2023-07-09T09:38:01;34.30;91.90
11894;DHT22;6006;49.696;8.662;2023-07-09T09:40:33;34.80;90.40
11894;DHT22;6006;49.696;8.662;2023-07-09T09:43:01;34.30;91.10
11894;DHT22;6006;49.696;8.662;2023-07-09T09:45:34;33.90;84.60
11894;DHT22;6006;49.696;8.662;2023-07-09T09:48:10;33.90;80.40
11894;DHT22;6006;49.696;8.662;2023-07-09T09:50:41;33.90;74.80
11894;DHT22;6006;49.696;8.662;2023-07-09T09:53:08;34.40;92.90
11894;DHT22;6006;49.696;8.662;2023-07-09T09:55:38;34.80;93.60
11894;DHT22;6006;49.696;8.662;2023-07-09T09:58:13;34.30;73.70
11894;DHT22;6006;49.696;8.662;2023-07-09T10:00:46;35.30;71.20
11894;DHT22;6006;49.696;8.662;2023-07-09T10:03:13;36.10;70.20
11894;DHT22;6006;49.696;8.662;2023-07-09T10:05:44;36.10;69.40
11894;DHT22;6006;49.696;8.662;2023-07-09T10:08:17;35.90;69.20
11894;DHT22;6006;49.696;8.662;2023-07-09T10:10:47;36.00;68.80
11894;DHT22;6006;49.696;8.662;2023-07-09T10:13:18;36.20;65.30
11894;DHT22;6006;49.696;8.662;2023-07-09T10:16:00;35.70;64.30
11894;DHT22;6006;49.696;8.662;2023-07-09T10:18:33;36.50;64.10
11894;DHT22;6006;49.696;8.662;2023-07-09T10:21:09;36.50;83.00
11894;DHT22;6006;49.696;8.662;2023-07-09T10:23:47;36.10;63.40
11894;DHT22;6006;49.696;8.662;2023-07-09T10:26:19;36.40;65.90
11894;DHT22;6006;49.696;8.662;2023-07-09T10:29:00;36.90;64.00
11894;DHT22;6006;49.696;8.662;2023-07-09T10:31:35;36.40;69.90
11894;DHT22;6006;49.696;8.662;2023-07-09T10:34:14;36.80;69.70
11894;DHT22;6006;49.696;8.662;2023-07-09T10:37:03;38.00;63.60
11894;DHT22;6006;49.696;8.662;2023-07-09T10:39:34;38.70;64.00
11894;DHT22;6006;49.696;8.662;2023-07-09T10:42:02;37.50;63.10
11894;DHT22;6006;49.696;8.662;2023-07-09T10:44:34;37.80;65.40
11894;DHT22;6006;49.696;8.662;2023-07-09T10:47:06;38.90;66.10
11894;DHT22;6006;49.696;8.662;2023-07-09T10:49:40;39.50;61.40
11894;DHT22;6006;49.696;8.662;2023-07-09T10:52:26;38.40;63.00
11894;DHT22;6006;49.696;8.662;2023-07-09T10:54:58;38.10;64.10
11894;DHT22;6006;49.696;8.662;2023-07-09T10:57:30;38.40;62.60
11894;DHT22;6006;49.696;8.662;2023-07-09T10:59:58;38.30;63.10
11894;DHT22;6006;49.696;8.662;2023-07-09T11:02:27;37.00;67.10
11894;DHT22;6006;49.696;8.662;2023-07-09T11:04:56;36.80;68.60
11894;DHT22;6006;49.696;8.662;2023-07-09T11:07:27;37.30;67.50
11894;DHT22;6006;49.696;8.662;2023-07-09T11:09:57;37.00;67.30
11894;DHT22;6006;49.696;8.662;2023-07-09T11:12:29;37.60;66.50
11894;DHT22;6006;49.696;8.662;2023-07-09T11:15:00;37.90;69.40
11894;DHT22;6006;49.696;8.662;2023-07-09T11:17:29;38.70;68.70
11894;DHT22;6006;49.696;8.662;2023-07-09T11:19:57;37.70;65.90
11894;DHT22;6006;49.696;8.662;2023-07-09T11:22:35;37.60;69.30
11894;DHT22;6006;49.696;8.662;2023-07-09T11:25:08;37.40;72.80
11894;DHT22;6006;49.696;8.662;2023-07-09T11:27:48;37.80;69.90
11894;DHT22;6006;49.696;8.662;2023-07-09T11:30:21;38.40;69.30
11894;DHT22;6006;49.696;8.662;2023-07-09T11:32:53;38.50;70.50
11894;DHT22;6006;49.696;8.662;2023-07-09T11:35:22;37.30;66.20
11894;DHT22;6006;49.696;8.662;2023-07-09T11:37:51;37.50;69.40
11894;DHT22;6006;49.696;8.662;2023-07-09T11:40:20;37.50;71.20
11894;DHT22;6006;49.696;8.662;2023-07-09T11:42:51;37.70;69.10
11894;DHT22;6006;49.696;8.662;2023-07-09T11:45:21;37.80;84.30
11894;DHT22;6006;49.696;8.662;2023-07-09T11:47:55;37.70;71.70
11894;DHT22;6006;49.696;8.662;2023-07-09T11:50:32;37.70;74.60
11894;DHT22;6006;49.696;8.662;2023-07-09T11:53:05;38.40;72.50
11894;DHT22;6006;49.696;8.662;2023-07-09T11:55:40;39.00;68.60
11894;DHT22;6006;49.696;8.662;2023-07-09T11:58:10;40.10;68.30
11894;DHT22;6006;49.696;8.662;2023-07-09T12:00:39;39.70;66.40
11894;DHT22;6006;49.696;8.662;2023-07-09T12:03:11;38.60;69.60
11894;DHT22;6006;49.696;8.662;2023-07-09T12:05:41;39.40;72.00
11894;DHT22;6006;49.696;8.662;2023-07-09T12:08:15;38.90;71.80
11894;DHT22;6006;49.696;8.662;2023-07-09T12:10:44;38.70;70.20
11894;DHT22;6006;49.696;8.662;2023-07-09T12:13:11;38.10;72.10
11894;DHT22;6006;49.696;8.662;2023-07-09T12:15:41;38.40;74.80
11894;DHT22;6006;49.696;8.662;2023-07-09T12:18:11;37.80;74.00
11894;DHT22;6006;49.696;8.662;2023-07-09T12:20:40;38.60;75.10
11894;DHT22;6006;49.696;8.662;2023-07-09T12:23:11;39.50;72.80
11894;DHT22;6006;49.696;8.662;2023-07-09T12:25:47;40.30;91.20
11894;DHT22;6006;49.696;8.662;2023-07-09T12:28:15;39.70;71.80
11894;DHT22;6006;49.696;8.662;2023-07-09T12:30:45;39.20;74.70
11894;DHT22;6006;49.696;8.662;2023-07-09T12:33:16;38.50;74.80
11894;DHT22;6006;49.696;8.662;2023-07-09T12:35:44;39.10;73.90
11894;DHT22;6006;49.696;8.662;2023-07-09T12:38:17;38.10;74.60
11894;DHT22;6006;49.696;8.662;2023-07-09T12:40:47;38.40;78.40
11894;DHT22;6006;49.696;8.662;2023-07-09T12:43:15;38.20;78.70
11894;DHT22;6006;49.696;8.662;2023-07-09T12:45:44;37.90;79.80
11894;DHT22;6006;49.696;8.662;2023-07-09T12:48:12;39.20;78.30
11894;DHT22;6006;49.696;8.662;2023-07-09T12:50:39;40.00;77.20
11894;DHT22;6006;49.696;8.662;2023-07-09T12:53:14;40.20;76.50
11894;DHT22;6006;49.696;8.662;2023-07-09T12:55:44;39.20;81.20
11894;DHT22;6006;49.696;8.662;2023-07-09T12:58:18;38.50;77.10
11894;DHT22;6006;49.696;8.662;2023-07-09T13:00:48;38.10;78.00
11894;DHT22;6006;49.696;8.662;2023-07-09T13:03:18;38.00;79.70
11894;DHT22;6006;49.696;8.662;2023-07-09T13:05:55;38.20;80.50
11894;DHT22;6006;49.696;8.662;2023-07-09T13:08:27;38.40;80.40
11894;DHT22;6006;49.696;8.662;2023-07-09T13:10:54;38.40;78.40
11894;DHT22;6006;49.696;8.662;2023-07-09T13:13:24;38.80;80.40
11894;DHT22;6006;49.696;8.662;2023-07-09T13:15:52;40.00;80.70
11894;DHT22;6006;49.696;8.662;2023-07-09T13:18:22;40.20;83.50
11894;DHT22;6006;49.696;8.662;2023-07-09T13:20:50;40.90;80.50
11894;DHT22;6006;49.696;8.662;2023-07-09T13:23:19;40.80;82.20
11894;DHT22;6006;49.696;8.662;2023-07-09T13:25:46;40.20;82.20
11894;DHT22;6006;49.696;8.662;2023-07-09T13:28:18;41.20;81.30
11894;DHT22;6006;49.696;8.662;2023-07-09T13:30:47;40.60;83.60
11894;DHT22;6006;49.696;8.662;2023-07-09T13:33:14;40.30;83.80
11894;DHT22;6006;49.696;8.662;2023-07-09T13:35:43;40.70;85.90
11894;DHT22;6006;49.696;8.662;2023-07-09T13:38:14;40.60;87.20
11894;DHT22;6006;49.696;8.662;2023-07-09T13:40:46;41.30;89.40
11894;DHT22;6006;49.696;8.662;2023-07-09T13:43:15;40.90;90.30
11894;DHT22;6006;49.696;8.662;2023-07-09T13:45:42;40.60;90.30
11894;DHT22;6006;49.696;8.662;2023-07-09T13:48:17;40.30;90.80
11894;DHT22;6006;49.696;8.662;2023-07-09T13:50:44;39.90;90.80
11894;DHT22;6006;49.696;8.662;2023-07-09T13:53:15;40.60;91.80
11894;DHT22;6006;49.696;8.662;2023-07-09T13:55:42;40.90;91.60
11894;DHT22;6006;49.696;8.662;2023-07-09T13:58:10;41.10;92.00
11894;DHT22;6006;49.696;8.662;2023-07-09T14:00:40;41.20;93.20
11894;DHT22;6006;49.696;8.662;2023-07-09T14:03:18;39.80;92.40
11894;DHT22;6006;49.696;8.662;2023-07-09T14:05:46;40.20;92.90
11894;DHT22;6006;49.696;8.662;2023-07-09T14:08:13;39.60;93.00
11894;DHT22;6006;49.696;8.662;2023-07-09T14:10:40;39.50;93.70
11894;DHT22;6006;49.696;8.662;2023-07-09T14:13:12;39.10;93.50
11894;DHT22;6006;49.696;8.662;2023-07-09T14:15:40;38.30;94.30
11894;DHT22;6006;49.696;8.662;2023-07-09T14:18:11;38.20;94.50
11894;DHT22;6006;49.696;8.662;2023-07-09T14:20:40;37.70;94.80
11894;DHT22;6006;49.696;8.662;2023-07-09T14:23:10;36.90;95.00
11894;DHT22;6006;49.696;8.662;2023-07-09T14:25:37;37.00;94.90
11894;DHT22;6006;49.696;8.662;2023-07-09T14:28:07;37.50;95.10
11894;DHT22;6006;49.696;8.662;2023-07-09T14:30:35;38.20;94.40
11894;DHT22;6006;49.696;8.662;2023-07-09T14:33:02;37.60;94.00
11894;DHT22;6006;49.696;8.662;2023-07-09T14:35:29;37.50;95.50
11894;DHT22;6006;49.696;8.662;2023-07-09T14:37:57;37.00;94.00
11894;DHT22;6006;49.696;8.662;2023-07-09T14:40:25;37.20;94.30
11894;DHT22;6006;49.696;8.662;2023-07-09T14:42:52;37.10;95.30
11894;DHT22;6006;49.696;8.662;2023-07-09T14:45:22;37.00;94.10
11894;DHT22;6006;49.696;8.662;2023-07-09T14:47:50;36.10;95.60
11894;DHT22;6006;49.696;8.662;2023-07-09T14:50:17;35.90;94.80
11894;DHT22;6006;49.696;8.662;2023-07-09T14:52:46;35.90;94.30
11894;DHT22;6006;49.696;8.662;2023-07-09T14:55:16;35.90;96.40
11894;DHT22;6006;49.696;8.662;2023-07-09T14:57:44;36.00;95.80
11894;DHT22;6006;49.696;8.662;2023-07-09T15:00:15;36.10;94.90
11894;DHT22;6006;49.696;8.662;2023-07-09T15:02:44;36.10;95.70
11894;DHT22;6006;49.696;8.662;2023-07-09T15:05:16;36.10;96.40
11894;DHT22;6006;49.696;8.662;2023-07-09T15:07:43;35.80;96.00
11894;DHT22;6006;49.696;8.662;2023-07-09T15:10:17;36.30;97.20
11894;DHT22;6006;49.696;8.662;2023-07-09T15:12:45;37.20;95.70
11894;DHT22;6006;49.696;8.662;2023-07-09T15:15:17;38.10;95.00
11894;DHT22;6006;49.696;8.662;2023-07-09T15:17:45;38.90;95.10
11894;DHT22;6006;49.696;8.662;2023-07-09T15:20:16;39.00;94.70
11894;DHT22;6006;49.696;8.662;2023-07-09T15:22:44;39.40;94.60
11894;DHT22;6006;49.696;8.662;2023-07-09T15:25:15;39.30;95.20
11894;DHT22;6006;49.696;8.662;2023-07-09T15:27:43;39.00;95.20
11894;DHT22;6006;49.696;8.662;2023-07-09T15:30:18;39.00;97.80
11894;DHT22;6006;49.696;8.662;2023-07-09T15:32:46;37.90;95.80
11894;DHT22;6006;49.696;8.662;2023-07-09T15:35:14;37.40;96.90
11894;DHT22;6006;49.696;8.662;2023-07-09T15:37:41;37.20;98.00
11894;DHT22;6006;49.696;8.662;2023-07-09T15:40:19;37.20;98.30
11894;DHT22;6006;49.696;8.662;2023-07-09T15:42:47;36.50;96.90
11894;DHT22;6006;49.696;8.662;2023-07-09T15:45:15;36.00;97.40
11894;DHT22;6006;49.696;8.662;2023-07-09T15:47:44;36.30;99.90
11894;DHT22;6006;49.696;8.662;2023-07-09T15:50:16;35.90;99.20
11894;DHT22;6006;49.696;8.662;2023-07-09T15:52:44;35.40;97.00
11894;DHT22;6006;49.696;8.662;2023-07-09T15:55:17;35.70;99.20
11894;DHT22;6006;49.696;8.662;2023-07-09T15:57:45;35.80;96.70
11894;DHT22;6006;49.696;8.662;2023-07-09T16:00:18;36.00;98.30
11894;DHT22;6006;49.696;8.662;2023-07-09T16:02:46;35.60;97.00